Awans, Belgium
Current Conditions -  °F | °C
As of 11:20 AM on Monday 20 Oct 2014 (Local Time) from EBLG Reporting Station
Scattered Clouds Scattered Clouds  
Wind Chill: 14°   Ceiling: Unl
Heat Index: 14°   Visibility: 6mi
Dew Point: 11°   Wind: 14mph
Humidity: 82%   Direction: 240°WSW
Pressure: 30.09"   Gusts: NA
Location:  50.67°N, 5.46°E
Report Text: EBLG 200920Z 24012KT 9999 SCT013 SCT027 14/11 Q1019 TEMPO BKN014
Loading
Personal Weather Stations






























Interactive Weather Map
Tropical Storm Tracking
New forecast layout! Learn more

10-Day Weather Forecast

Advertisements
Track Severe Weather on mobile